sensor_id;sensor_type;location;lat;lon;timestamp;P1;durP1;ratioP1;P2;durP2;ratioP2
12224;SDS011;6175;50.956;11.064;2022-11-15T00:01:19;4.07;;;3.30;;
12224;SDS011;6175;50.956;11.064;2022-11-15T00:03:50;4.13;;;3.45;;
12224;SDS011;6175;50.956;11.064;2022-11-15T00:06:17;3.92;;;3.08;;
12224;SDS011;6175;50.956;11.064;2022-11-15T00:08:44;3.92;;;3.17;;
12224;SDS011;6175;50.956;11.064;2022-11-15T00:11:12;7.65;;;3.33;;
12224;SDS011;6175;50.956;11.064;2022-11-15T00:13:39;3.50;;;3.00;;
12224;SDS011;6175;50.956;11.064;2022-11-15T00:16:07;4.15;;;2.92;;
12224;SDS011;6175;50.956;11.064;2022-11-15T00:18:35;2.90;;;2.63;;
12224;SDS011;6175;50.956;11.064;2022-11-15T00:21:03;3.75;;;3.35;;
12224;SDS011;6175;50.956;11.064;2022-11-15T00:23:31;5.05;;;3.47;;
12224;SDS011;6175;50.956;11.064;2022-11-15T00:25:58;5.20;;;3.30;;
12224;SDS011;6175;50.956;11.064;2022-11-15T00:28:26;3.90;;;3.17;;
12224;SDS011;6175;50.956;11.064;2022-11-15T00:30:54;4.25;;;3.00;;
12224;SDS011;6175;50.956;11.064;2022-11-15T00:33:21;3.58;;;3.17;;
12224;SDS011;6175;50.956;11.064;2022-11-15T00:35:48;4.43;;;3.42;;
12224;SDS011;6175;50.956;11.064;2022-11-15T00:38:15;4.65;;;2.95;;
12224;SDS011;6175;50.956;11.064;2022-11-15T00:40:42;4.10;;;2.97;;
12224;SDS011;6175;50.956;11.064;2022-11-15T00:43:09;5.63;;;3.30;;
12224;SDS011;6175;50.956;11.064;2022-11-15T00:45:37;5.97;;;3.42;;
12224;SDS011;6175;50.956;11.064;2022-11-15T00:48:04;3.40;;;2.92;;
12224;SDS011;6175;50.956;11.064;2022-11-15T00:50:31;5.00;;;3.25;;
12224;SDS011;6175;50.956;11.064;2022-11-15T00:52:58;4.47;;;3.03;;
12224;SDS011;6175;50.956;11.064;2022-11-15T00:55:26;5.15;;;2.90;;
12224;SDS011;6175;50.956;11.064;2022-11-15T00:57:54;3.28;;;2.72;;
12224;SDS011;6175;50.956;11.064;2022-11-15T01:00:22;4.25;;;3.15;;
12224;SDS011;6175;50.956;11.064;2022-11-15T01:02:50;3.50;;;3.20;;
12224;SDS011;6175;50.956;11.064;2022-11-15T01:05:17;3.50;;;2.88;;
12224;SDS011;6175;50.956;11.064;2022-11-15T01:07:44;4.32;;;3.13;;
12224;SDS011;6175;50.956;11.064;2022-11-15T01:10:12;4.00;;;3.05;;
12224;SDS011;6175;50.956;11.064;2022-11-15T01:12:38;5.20;;;3.28;;
12224;SDS011;6175;50.956;11.064;2022-11-15T01:15:06;3.90;;;2.92;;
12224;SDS011;6175;50.956;11.064;2022-11-15T01:17:33;3.22;;;2.85;;
12224;SDS011;6175;50.956;11.064;2022-11-15T01:20:02;4.80;;;3.15;;
12224;SDS011;6175;50.956;11.064;2022-11-15T01:22:29;7.30;;;3.70;;
12224;SDS011;6175;50.956;11.064;2022-11-15T01:24:56;3.17;;;2.70;;
12224;SDS011;6175;50.956;11.064;2022-11-15T01:27:24;3.78;;;2.90;;
12224;SDS011;6175;50.956;11.064;2022-11-15T01:29:51;4.57;;;2.60;;
12224;SDS011;6175;50.956;11.064;2022-11-15T01:32:18;3.78;;;3.38;;
12224;SDS011;6175;50.956;11.064;2022-11-15T01:34:45;3.85;;;2.45;;
12224;SDS011;6175;50.956;11.064;2022-11-15T01:37:14;3.28;;;2.97;;
12224;SDS011;6175;50.956;11.064;2022-11-15T01:39:41;3.33;;;3.03;;
12224;SDS011;6175;50.956;11.064;2022-11-15T01:42:09;4.82;;;2.85;;
12224;SDS011;6175;50.956;11.064;2022-11-15T01:44:42;4.53;;;3.30;;
12224;SDS011;6175;50.956;11.064;2022-11-15T01:47:12;3.30;;;2.97;;
12224;SDS011;6175;50.956;11.064;2022-11-15T01:49:44;6.30;;;3.42;;
12224;SDS011;6175;50.956;11.064;2022-11-15T01:52:19;3.35;;;3.05;;
12224;SDS011;6175;50.956;11.064;2022-11-15T01:54:48;3.08;;;2.78;;
12224;SDS011;6175;50.956;11.064;2022-11-15T01:57:19;3.47;;;3.13;;
12224;SDS011;6175;50.956;11.064;2022-11-15T01:59:46;4.68;;;3.05;;
12224;SDS011;6175;50.956;11.064;2022-11-15T02:02:13;4.50;;;3.10;;
12224;SDS011;6175;50.956;11.064;2022-11-15T02:04:42;3.42;;;3.00;;
12224;SDS011;6175;50.956;11.064;2022-11-15T02:07:11;3.72;;;2.97;;
12224;SDS011;6175;50.956;11.064;2022-11-15T02:09:42;3.85;;;2.92;;
12224;SDS011;6175;50.956;11.064;2022-11-15T02:12:10;3.47;;;3.15;;
12224;SDS011;6175;50.956;11.064;2022-11-15T02:14:40;4.78;;;3.30;;
12224;SDS011;6175;50.956;11.064;2022-11-15T02:17:19;3.55;;;2.97;;
12224;SDS011;6175;50.956;11.064;2022-11-15T02:23:07;3.83;;;3.05;;
12224;SDS011;6175;50.956;11.064;2022-11-15T02:26:10;3.30;;;3.00;;
12224;SDS011;6175;50.956;11.064;2022-11-15T02:28:58;3.03;;;2.72;;
12224;SDS011;6175;50.956;11.064;2022-11-15T02:31:32;3.25;;;2.67;;
12224;SDS011;6175;50.956;11.064;2022-11-15T02:34:08;2.92;;;2.63;;
12224;SDS011;6175;50.956;11.064;2022-11-15T02:36:43;3.20;;;2.85;;
12224;SDS011;6175;50.956;11.064;2022-11-15T02:39:23;3.58;;;2.70;;
12224;SDS011;6175;50.956;11.064;2022-11-15T02:42:00;4.82;;;2.72;;
12224;SDS011;6175;50.956;11.064;2022-11-15T02:44:50;4.07;;;3.15;;
12224;SDS011;6175;50.956;11.064;2022-11-15T02:47:19;3.78;;;3.33;;
12224;SDS011;6175;50.956;11.064;2022-11-15T02:49:49;3.10;;;2.80;;
12224;SDS011;6175;50.956;11.064;2022-11-15T02:52:19;4.43;;;2.90;;
12224;SDS011;6175;50.956;11.064;2022-11-15T02:54:52;4.25;;;2.90;;
12224;SDS011;6175;50.956;11.064;2022-11-15T02:57:21;3.40;;;2.50;;
12224;SDS011;6175;50.956;11.064;2022-11-15T03:00:04;3.40;;;2.80;;
12224;SDS011;6175;50.956;11.064;2022-11-15T03:02:41;5.70;;;3.47;;
12224;SDS011;6175;50.956;11.064;2022-11-15T03:05:23;3.78;;;2.75;;
12224;SDS011;6175;50.956;11.064;2022-11-15T03:07:59;3.70;;;3.05;;
12224;SDS011;6175;50.956;11.064;2022-11-15T03:10:35;5.70;;;2.88;;
12224;SDS011;6175;50.956;11.064;2022-11-15T03:13:09;3.10;;;2.88;;
12224;SDS011;6175;50.956;11.064;2022-11-15T03:15:44;3.10;;;2.67;;
12224;SDS011;6175;50.956;11.064;2022-11-15T03:18:19;3.33;;;2.92;;
12224;SDS011;6175;50.956;11.064;2022-11-15T03:20:49;3.63;;;2.88;;
12224;SDS011;6175;50.956;11.064;2022-11-15T03:23:17;3.75;;;2.88;;
12224;SDS011;6175;50.956;11.064;2022-11-15T03:25:45;3.60;;;3.00;;
12224;SDS011;6175;50.956;11.064;2022-11-15T03:28:16;3.10;;;2.78;;
12224;SDS011;6175;50.956;11.064;2022-11-15T03:30:47;2.72;;;2.47;;
12224;SDS011;6175;50.956;11.064;2022-11-15T03:33:17;6.57;;;2.97;;
12224;SDS011;6175;50.956;11.064;2022-11-15T03:35:46;3.60;;;3.08;;
12224;SDS011;6175;50.956;11.064;2022-11-15T03:38:15;3.65;;;2.67;;
12224;SDS011;6175;50.956;11.064;2022-11-15T03:40:47;3.13;;;2.78;;
12224;SDS011;6175;50.956;11.064;2022-11-15T03:43:22;3.28;;;2.80;;
12224;SDS011;6175;50.956;11.064;2022-11-15T03:45:54;3.85;;;2.92;;
12224;SDS011;6175;50.956;11.064;2022-11-15T03:48:28;3.65;;;3.05;;
12224;SDS011;6175;50.956;11.064;2022-11-15T03:50:59;4.60;;;2.80;;
12224;SDS011;6175;50.956;11.064;2022-11-15T03:53:27;5.00;;;3.53;;
12224;SDS011;6175;50.956;11.064;2022-11-15T03:55:55;3.22;;;2.92;;
12224;SDS011;6175;50.956;11.064;2022-11-15T03:58:22;5.10;;;3.05;;
12224;SDS011;6175;50.956;11.064;2022-11-15T04:00:49;3.80;;;2.78;;
12224;SDS011;6175;50.956;11.064;2022-11-15T04:03:16;3.10;;;2.90;;
12224;SDS011;6175;50.956;11.064;2022-11-15T04:05:45;4.35;;;2.92;;
12224;SDS011;6175;50.956;11.064;2022-11-15T04:08:12;3.38;;;2.97;;
12224;SDS011;6175;50.956;11.064;2022-11-15T04:10:39;4.15;;;2.97;;
12224;SDS011;6175;50.956;11.064;2022-11-15T04:13:06;3.85;;;3.05;;
12224;SDS011;6175;50.956;11.064;2022-11-15T04:15:33;3.75;;;2.83;;
12224;SDS011;6175;50.956;11.064;2022-11-15T04:18:01;3.58;;;2.95;;
12224;SDS011;6175;50.956;11.064;2022-11-15T04:20:29;3.35;;;3.00;;
12224;SDS011;6175;50.956;11.064;2022-11-15T04:23:16;4.15;;;3.05;;
12224;SDS011;6175;50.956;11.064;2022-11-15T04:26:02;4.57;;;3.58;;
12224;SDS011;6175;50.956;11.064;2022-11-15T04:28:32;4.93;;;3.13;;
12224;SDS011;6175;50.956;11.064;2022-11-15T04:30:59;3.85;;;3.00;;
12224;SDS011;6175;50.956;11.064;2022-11-15T04:33:26;3.58;;;2.97;;
12224;SDS011;6175;50.956;11.064;2022-11-15T04:35:53;3.97;;;3.03;;
12224;SDS011;6175;50.956;11.064;2022-11-15T04:38:39;3.58;;;2.75;;
12224;SDS011;6175;50.956;11.064;2022-11-15T04:41:06;4.97;;;2.85;;
12224;SDS011;6175;50.956;11.064;2022-11-15T04:43:34;4.68;;;2.90;;
12224;SDS011;6175;50.956;11.064;2022-11-15T04:46:01;3.88;;;2.90;;
12224;SDS011;6175;50.956;11.064;2022-11-15T04:48:28;4.07;;;2.78;;
12224;SDS011;6175;50.956;11.064;2022-11-15T04:50:55;2.78;;;2.58;;
12224;SDS011;6175;50.956;11.064;2022-11-15T04:53:22;4.07;;;2.92;;
12224;SDS011;6175;50.956;11.064;2022-11-15T04:55:50;5.55;;;3.00;;
12224;SDS011;6175;50.956;11.064;2022-11-15T04:58:17;7.60;;;3.20;;
12224;SDS011;6175;50.956;11.064;2022-11-15T05:00:45;3.70;;;2.83;;
12224;SDS011;6175;50.956;11.064;2022-11-15T05:03:12;3.65;;;2.97;;
12224;SDS011;6175;50.956;11.064;2022-11-15T05:05:56;4.30;;;2.90;;
12224;SDS011;6175;50.956;11.064;2022-11-15T05:08:24;3.20;;;2.90;;
12224;SDS011;6175;50.956;11.064;2022-11-15T05:10:52;3.30;;;2.78;;
12224;SDS011;6175;50.956;11.064;2022-11-15T05:13:20;2.85;;;2.65;;
12224;SDS011;6175;50.956;11.064;2022-11-15T05:15:47;4.35;;;3.58;;
12224;SDS011;6175;50.956;11.064;2022-11-15T05:18:14;3.20;;;2.90;;
12224;SDS011;6175;50.956;11.064;2022-11-15T05:20:41;4.43;;;2.83;;
12224;SDS011;6175;50.956;11.064;2022-11-15T05:23:08;5.10;;;3.47;;
12224;SDS011;6175;50.956;11.064;2022-11-15T05:25:35;4.45;;;3.15;;
12224;SDS011;6175;50.956;11.064;2022-11-15T05:28:04;3.72;;;2.83;;
12224;SDS011;6175;50.956;11.064;2022-11-15T05:30:31;3.28;;;2.80;;
12224;SDS011;6175;50.956;11.064;2022-11-15T05:32:59;3.08;;;2.75;;
12224;SDS011;6175;50.956;11.064;2022-11-15T05:35:30;3.10;;;2.80;;
12224;SDS011;6175;50.956;11.064;2022-11-15T05:38:01;3.85;;;2.60;;
12224;SDS011;6175;50.956;11.064;2022-11-15T05:40:28;4.07;;;3.10;;
12224;SDS011;6175;50.956;11.064;2022-11-15T05:42:56;4.07;;;2.97;;
12224;SDS011;6175;50.956;11.064;2022-11-15T05:45:25;4.53;;;2.90;;
12224;SDS011;6175;50.956;11.064;2022-11-15T05:47:52;4.25;;;2.90;;
12224;SDS011;6175;50.956;11.064;2022-11-15T05:50:22;3.80;;;2.83;;
12224;SDS011;6175;50.956;11.064;2022-11-15T05:52:49;2.88;;;2.58;;
12224;SDS011;6175;50.956;11.064;2022-11-15T05:55:16;5.10;;;2.92;;
12224;SDS011;6175;50.956;11.064;2022-11-15T05:57:44;3.30;;;2.90;;
12224;SDS011;6175;50.956;11.064;2022-11-15T06:00:11;3.20;;;2.70;;
12224;SDS011;6175;50.956;11.064;2022-11-15T06:02:40;3.30;;;2.95;;
12224;SDS011;6175;50.956;11.064;2022-11-15T06:05:08;4.00;;;3.30;;
12224;SDS011;6175;50.956;11.064;2022-11-15T06:07:35;4.25;;;2.90;;
12224;SDS011;6175;50.956;11.064;2022-11-15T06:10:02;3.22;;;2.90;;
12224;SDS011;6175;50.956;11.064;2022-11-15T06:12:30;4.97;;;3.13;;
12224;SDS011;6175;50.956;11.064;2022-11-15T06:14:57;3.53;;;3.22;;
12224;SDS011;6175;50.956;11.064;2022-11-15T06:17:24;3.35;;;2.63;;
12224;SDS011;6175;50.956;11.064;2022-11-15T06:19:52;3.30;;;2.80;;
12224;SDS011;6175;50.956;11.064;2022-11-15T06:22:20;3.38;;;3.00;;
12224;SDS011;6175;50.956;11.064;2022-11-15T06:24:47;4.05;;;3.10;;
12224;SDS011;6175;50.956;11.064;2022-11-15T06:27:14;3.28;;;2.95;;
12224;SDS011;6175;50.956;11.064;2022-11-15T06:29:41;3.50;;;2.95;;
12224;SDS011;6175;50.956;11.064;2022-11-15T06:32:08;3.97;;;3.40;;
12224;SDS011;6175;50.956;11.064;2022-11-15T06:34:35;3.35;;;3.05;;
12224;SDS011;6175;50.956;11.064;2022-11-15T06:37:04;3.33;;;2.97;;
12224;SDS011;6175;50.956;11.064;2022-11-15T06:39:31;3.50;;;3.17;;
12224;SDS011;6175;50.956;11.064;2022-11-15T06:41:58;3.05;;;2.67;;
12224;SDS011;6175;50.956;11.064;2022-11-15T06:44:25;3.50;;;2.90;;
12224;SDS011;6175;50.956;11.064;2022-11-15T06:46:52;3.38;;;2.67;;
12224;SDS011;6175;50.956;11.064;2022-11-15T06:49:19;3.25;;;2.95;;
12224;SDS011;6175;50.956;11.064;2022-11-15T06:51:46;2.72;;;2.30;;
12224;SDS011;6175;50.956;11.064;2022-11-15T06:54:15;2.80;;;2.60;;
12224;SDS011;6175;50.956;11.064;2022-11-15T06:56:42;3.97;;;3.20;;
12224;SDS011;6175;50.956;11.064;2022-11-15T06:59:09;4.65;;;3.15;;
12224;SDS011;6175;50.956;11.064;2022-11-15T07:01:36;4.18;;;3.40;;
12224;SDS011;6175;50.956;11.064;2022-11-15T07:04:04;5.03;;;3.50;;
12224;SDS011;6175;50.956;11.064;2022-11-15T07:06:30;3.90;;;3.00;;
12224;SDS011;6175;50.956;11.064;2022-11-15T07:08:58;3.65;;;2.95;;
12224;SDS011;6175;50.956;11.064;2022-11-15T07:11:26;3.92;;;3.17;;
12224;SDS011;6175;50.956;11.064;2022-11-15T07:13:53;3.88;;;2.80;;
12224;SDS011;6175;50.956;11.064;2022-11-15T07:16:20;4.10;;;2.78;;
12224;SDS011;6175;50.956;11.064;2022-11-15T07:18:47;3.50;;;3.10;;
12224;SDS011;6175;50.956;11.064;2022-11-15T07:21:14;4.35;;;2.90;;
12224;SDS011;6175;50.956;11.064;2022-11-15T07:23:41;5.68;;;3.33;;
12224;SDS011;6175;50.956;11.064;2022-11-15T07:26:08;5.18;;;3.50;;
12224;SDS011;6175;50.956;11.064;2022-11-15T07:28:37;4.47;;;3.13;;
12224;SDS011;6175;50.956;11.064;2022-11-15T07:31:04;3.53;;;3.10;;
12224;SDS011;6175;50.956;11.064;2022-11-15T07:33:32;5.15;;;2.92;;
12224;SDS011;6175;50.956;11.064;2022-11-15T07:35:59;2.90;;;2.60;;
12224;SDS011;6175;50.956;11.064;2022-11-15T07:38:27;3.00;;;2.70;;
12224;SDS011;6175;50.956;11.064;2022-11-15T07:40:58;3.15;;;2.88;;
12224;SDS011;6175;50.956;11.064;2022-11-15T07:43:26;3.45;;;3.10;;
12224;SDS011;6175;50.956;11.064;2022-11-15T07:45:55;3.00;;;2.70;;
12224;SDS011;6175;50.956;11.064;2022-11-15T07:48:23;3.47;;;2.97;;
12224;SDS011;6175;50.956;11.064;2022-11-15T07:50:50;3.20;;;2.90;;
12224;SDS011;6175;50.956;11.064;2022-11-15T07:53:17;6.50;;;3.50;;
12224;SDS011;6175;50.956;11.064;2022-11-15T07:55:44;3.80;;;3.40;;
12224;SDS011;6175;50.956;11.064;2022-11-15T07:58:11;4.70;;;3.20;;
12224;SDS011;6175;50.956;11.064;2022-11-15T08:00:39;3.38;;;3.00;;
12224;SDS011;6175;50.956;11.064;2022-11-15T08:03:09;4.68;;;3.80;;
12224;SDS011;6175;50.956;11.064;2022-11-15T08:05:37;4.65;;;3.60;;
12224;SDS011;6175;50.956;11.064;2022-11-15T08:08:05;4.32;;;3.45;;
12224;SDS011;6175;50.956;11.064;2022-11-15T08:10:33;3.95;;;3.40;;
12224;SDS011;6175;50.956;11.064;2022-11-15T08:13:00;5.55;;;3.70;;
12224;SDS011;6175;50.956;11.064;2022-11-15T08:15:29;4.40;;;3.60;;
12224;SDS011;6175;50.956;11.064;2022-11-15T08:17:56;3.72;;;3.40;;
12224;SDS011;6175;50.956;11.064;2022-11-15T08:20:27;4.70;;;3.35;;
12224;SDS011;6175;50.956;11.064;2022-11-15T08:22:55;3.33;;;3.03;;
12224;SDS011;6175;50.956;11.064;2022-11-15T08:25:22;4.22;;;3.78;;
12224;SDS011;6175;50.956;11.064;2022-11-15T08:27:51;4.57;;;3.20;;
12224;SDS011;6175;50.956;11.064;2022-11-15T08:30:18;3.67;;;2.92;;
12224;SDS011;6175;50.956;11.064;2022-11-15T08:32:45;3.40;;;3.10;;
12224;SDS011;6175;50.956;11.064;2022-11-15T08:35:13;5.95;;;3.10;;
12224;SDS011;6175;50.956;11.064;2022-11-15T08:37:41;4.25;;;3.13;;
12224;SDS011;6175;50.956;11.064;2022-11-15T08:40:08;3.83;;;2.90;;
12224;SDS011;6175;50.956;11.064;2022-11-15T08:42:36;4.80;;;3.13;;
12224;SDS011;6175;50.956;11.064;2022-11-15T08:45:03;3.42;;;3.03;;
12224;SDS011;6175;50.956;11.064;2022-11-15T08:47:31;3.45;;;2.63;;
12224;SDS011;6175;50.956;11.064;2022-11-15T08:49:58;3.08;;;2.40;;
12224;SDS011;6175;50.956;11.064;2022-11-15T08:52:25;2.35;;;2.05;;
12224;SDS011;6175;50.956;11.064;2022-11-15T08:54:53;3.03;;;2.50;;
12224;SDS011;6175;50.956;11.064;2022-11-15T08:57:20;3.42;;;2.45;;
12224;SDS011;6175;50.956;11.064;2022-11-15T08:59:47;2.97;;;2.67;;
12224;SDS011;6175;50.956;11.064;2022-11-15T09:02:14;2.58;;;2.38;;
12224;SDS011;6175;50.956;11.064;2022-11-15T09:04:42;2.42;;;2.20;;
12224;SDS011;6175;50.956;11.064;2022-11-15T09:07:10;2.80;;;2.60;;
12224;SDS011;6175;50.956;11.064;2022-11-15T09:09:38;2.95;;;2.33;;
12224;SDS011;6175;50.956;11.064;2022-11-15T09:12:07;2.60;;;2.20;;
12224;SDS011;6175;50.956;11.064;2022-11-15T09:14:34;3.75;;;2.22;;
12224;SDS011;6175;50.956;11.064;2022-11-15T09:17:01;3.05;;;2.33;;
12224;SDS011;6175;50.956;11.064;2022-11-15T09:19:28;2.70;;;2.40;;
12224;SDS011;6175;50.956;11.064;2022-11-15T09:21:56;2.75;;;2.05;;
12224;SDS011;6175;50.956;11.064;2022-11-15T09:24:23;2.67;;;2.47;;
12224;SDS011;6175;50.956;11.064;2022-11-15T09:26:50;4.55;;;2.45;;
12224;SDS011;6175;50.956;11.064;2022-11-15T09:29:19;3.33;;;2.55;;
12224;SDS011;6175;50.956;11.064;2022-11-15T09:31:46;2.80;;;2.47;;
12224;SDS011;6175;50.956;11.064;2022-11-15T09:34:14;2.55;;;2.20;;
12224;SDS011;6175;50.956;11.064;2022-11-15T09:36:41;3.15;;;2.72;;
12224;SDS011;6175;50.956;11.064;2022-11-15T09:39:08;4.28;;;3.08;;
12224;SDS011;6175;50.956;11.064;2022-11-15T09:44:42;3.58;;;2.40;;
12224;SDS011;6175;50.956;11.064;2022-11-15T09:47:27;3.47;;;2.90;;
12224;SDS011;6175;50.956;11.064;2022-11-15T09:50:08;2.58;;;2.30;;
12224;SDS011;6175;50.956;11.064;2022-11-15T09:52:37;4.18;;;2.78;;
12224;SDS011;6175;50.956;11.064;2022-11-15T09:55:09;3.60;;;3.03;;
12224;SDS011;6175;50.956;11.064;2022-11-15T09:57:39;2.63;;;2.42;;
12224;SDS011;6175;50.956;11.064;2022-11-15T10:00:15;3.13;;;2.83;;
12224;SDS011;6175;50.956;11.064;2022-11-15T10:02:49;4.65;;;2.95;;
12224;SDS011;6175;50.956;11.064;2022-11-15T10:05:30;2.80;;;2.50;;
12224;SDS011;6175;50.956;11.064;2022-11-15T10:08:02;3.15;;;2.72;;
12224;SDS011;6175;50.956;11.064;2022-11-15T10:10:38;4.50;;;2.60;;
12224;SDS011;6175;50.956;11.064;2022-11-15T10:13:09;3.70;;;3.10;;
12224;SDS011;6175;50.956;11.064;2022-11-15T10:15:43;4.10;;;2.70;;
12224;SDS011;6175;50.956;11.064;2022-11-15T10:18:14;3.90;;;2.67;;
12224;SDS011;6175;50.956;11.064;2022-11-15T10:20:46;2.90;;;2.50;;
12224;SDS011;6175;50.956;11.064;2022-11-15T10:23:16;2.95;;;2.50;;
12224;SDS011;6175;50.956;11.064;2022-11-15T10:25:45;3.33;;;2.50;;
12224;SDS011;6175;50.956;11.064;2022-11-15T10:28:16;3.47;;;2.58;;
12224;SDS011;6175;50.956;11.064;2022-11-15T10:30:48;2.30;;;2.10;;
12224;SDS011;6175;50.956;11.064;2022-11-15T10:33:19;3.72;;;2.40;;
12224;SDS011;6175;50.956;11.064;2022-11-15T10:38:55;2.38;;;2.17;;
12224;SDS011;6175;50.956;11.064;2022-11-15T10:41:30;3.45;;;2.28;;
12224;SDS011;6175;50.956;11.064;2022-11-15T10:44:07;3.17;;;2.20;;
12224;SDS011;6175;50.956;11.064;2022-11-15T10:46:46;2.30;;;2.10;;
12224;SDS011;6175;50.956;11.064;2022-11-15T10:49:16;4.88;;;2.20;;
12224;SDS011;6175;50.956;11.064;2022-11-15T10:51:45;3.92;;;2.20;;
12224;SDS011;6175;50.956;11.064;2022-11-15T10:54:15;3.10;;;2.40;;
12224;SDS011;6175;50.956;11.064;2022-11-15T10:56:48;2.85;;;2.25;;
12224;SDS011;6175;50.956;11.064;2022-11-15T10:59:19;2.00;;;1.75;;
12224;SDS011;6175;50.956;11.064;2022-11-15T11:01:51;3.20;;;2.25;;
12224;SDS011;6175;50.956;11.064;2022-11-15T11:04:18;3.45;;;2.00;;
12224;SDS011;6175;50.956;11.064;2022-11-15T11:06:46;2.53;;;2.00;;
12224;SDS011;6175;50.956;11.064;2022-11-15T11:09:22;2.45;;;2.13;;
12224;SDS011;6175;50.956;11.064;2022-11-15T11:11:54;2.83;;;2.58;;
12224;SDS011;6175;50.956;11.064;2022-11-15T11:14:21;2.75;;;2.55;;
12224;SDS011;6175;50.956;11.064;2022-11-15T11:16:54;3.58;;;2.20;;
12224;SDS011;6175;50.956;11.064;2022-11-15T11:19:29;4.20;;;2.33;;
12224;SDS011;6175;50.956;11.064;2022-11-15T11:22:12;2.00;;;1.80;;
12224;SDS011;6175;50.956;11.064;2022-11-15T11:24:48;2.53;;;2.20;;
12224;SDS011;6175;50.956;11.064;2022-11-15T11:27:29;3.47;;;2.10;;
12224;SDS011;6175;50.956;11.064;2022-11-15T11:30:04;2.72;;;1.80;;
12224;SDS011;6175;50.956;11.064;2022-11-15T11:32:50;2.63;;;2.00;;
12224;SDS011;6175;50.956;11.064;2022-11-15T11:35:29;2.40;;;2.10;;
12224;SDS011;6175;50.956;11.064;2022-11-15T11:38:04;4.53;;;2.20;;
12224;SDS011;6175;50.956;11.064;2022-11-15T11:40:44;2.47;;;2.25;;
12224;SDS011;6175;50.956;11.064;2022-11-15T11:43:24;3.13;;;1.92;;
12224;SDS011;6175;50.956;11.064;2022-11-15T11:46:05;2.40;;;2.20;;
12224;SDS011;6175;50.956;11.064;2022-11-15T11:48:50;2.70;;;2.08;;
12224;SDS011;6175;50.956;11.064;2022-11-15T11:51:24;2.28;;;2.08;;
12224;SDS011;6175;50.956;11.064;2022-11-15T11:53:56;2.15;;;1.98;;
12224;SDS011;6175;50.956;11.064;2022-11-15T11:56:27;2.38;;;2.13;;
12224;SDS011;6175;50.956;11.064;2022-11-15T11:59:00;2.20;;;2.00;;
12224;SDS011;6175;50.956;11.064;2022-11-15T12:01:32;5.55;;;2.10;;
12224;SDS011;6175;50.956;11.064;2022-11-15T12:04:05;3.88;;;2.20;;
12224;SDS011;6175;50.956;11.064;2022-11-15T12:06:38;2.40;;;2.20;;
12224;SDS011;6175;50.956;11.064;2022-11-15T12:09:12;3.58;;;2.25;;
12224;SDS011;6175;50.956;11.064;2022-11-15T12:11:46;3.53;;;2.20;;
12224;SDS011;6175;50.956;11.064;2022-11-15T12:14:25;2.28;;;2.00;;
12224;SDS011;6175;50.956;11.064;2022-11-15T12:16:56;3.92;;;2.40;;
12224;SDS011;6175;50.956;11.064;2022-11-15T12:19:25;2.60;;;2.05;;
12224;SDS011;6175;50.956;11.064;2022-11-15T12:21:55;2.70;;;2.00;;
12224;SDS011;6175;50.956;11.064;2022-11-15T12:24:26;3.20;;;2.08;;
12224;SDS011;6175;50.956;11.064;2022-11-15T12:26:57;3.05;;;2.08;;
12224;SDS011;6175;50.956;11.064;2022-11-15T12:29:28;3.55;;;2.20;;
12224;SDS011;6175;50.956;11.064;2022-11-15T12:32:01;2.58;;;2.10;;
12224;SDS011;6175;50.956;11.064;2022-11-15T12:34:34;2.67;;;2.20;;
12224;SDS011;6175;50.956;11.064;2022-11-15T12:40:20;2.58;;;2.25;;
12224;SDS011;6175;50.956;11.064;2022-11-15T12:43:03;2.10;;;1.90;;
12224;SDS011;6175;50.956;11.064;2022-11-15T12:45:45;2.35;;;1.65;;
12224;SDS011;6175;50.956;11.064;2022-11-15T12:54:56;3.80;;;2.10;;
12224;SDS011;6175;50.956;11.064;2022-11-15T12:57:34;2.15;;;1.95;;
12224;SDS011;6175;50.956;11.064;2022-11-15T13:03:23;2.22;;;1.60;;
12224;SDS011;6175;50.956;11.064;2022-11-15T13:06:00;2.92;;;1.90;;
12224;SDS011;6175;50.956;11.064;2022-11-15T13:08:38;1.70;;;1.60;;
12224;SDS011;6175;50.956;11.064;2022-11-15T13:17:16;3.28;;;1.90;;
12224;SDS011;6175;50.956;11.064;2022-11-15T13:19:59;1.85;;;1.60;;
12224;SDS011;6175;50.956;11.064;2022-11-15T13:22:29;2.40;;;1.80;;
12224;SDS011;6175;50.956;11.064;2022-11-15T13:25:23;2.03;;;1.60;;
12224;SDS011;6175;50.956;11.064;2022-11-15T13:28:09;2.80;;;1.80;;
12224;SDS011;6175;50.956;11.064;2022-11-15T13:30:48;3.50;;;2.15;;
12224;SDS011;6175;50.956;11.064;2022-11-15T13:33:18;2.70;;;1.40;;
12224;SDS011;6175;50.956;11.064;2022-11-15T13:35:48;2.28;;;1.83;;
12224;SDS011;6175;50.956;11.064;2022-11-15T13:38:18;2.45;;;1.73;;
12224;SDS011;6175;50.956;11.064;2022-11-15T13:40:53;3.38;;;1.60;;
12224;SDS011;6175;50.956;11.064;2022-11-15T13:43:29;3.20;;;1.70;;
12224;SDS011;6175;50.956;11.064;2022-11-15T13:46:07;3.65;;;1.98;;
12224;SDS011;6175;50.956;11.064;2022-11-15T13:48:39;2.08;;;1.75;;
12224;SDS011;6175;50.956;11.064;2022-11-15T13:51:08;1.60;;;1.50;;
12224;SDS011;6175;50.956;11.064;2022-11-15T13:53:47;1.98;;;1.67;;
12224;SDS011;6175;50.956;11.064;2022-11-15T13:56:19;1.67;;;1.58;;
12224;SDS011;6175;50.956;11.064;2022-11-15T13:58:47;1.63;;;1.38;;
12224;SDS011;6175;50.956;11.064;2022-11-15T14:01:15;2.13;;;1.52;;
12224;SDS011;6175;50.956;11.064;2022-11-15T14:03:53;2.97;;;1.90;;
12224;SDS011;6175;50.956;11.064;2022-11-15T14:06:23;1.90;;;1.77;;
12224;SDS011;6175;50.956;11.064;2022-11-15T14:11:59;2.92;;;1.92;;
12224;SDS011;6175;50.956;11.064;2022-11-15T14:14:28;2.42;;;1.60;;
12224;SDS011;6175;50.956;11.064;2022-11-15T14:16:56;2.55;;;1.60;;
12224;SDS011;6175;50.956;11.064;2022-11-15T14:19:35;2.13;;;1.90;;
12224;SDS011;6175;50.956;11.064;2022-11-15T14:22:17;3.10;;;1.88;;
12224;SDS011;6175;50.956;11.064;2022-11-15T14:25:05;4.38;;;2.58;;
12224;SDS011;6175;50.956;11.064;2022-11-15T14:27:42;3.03;;;2.17;;
12224;SDS011;6175;50.956;11.064;2022-11-15T14:30:13;2.47;;;2.28;;
12224;SDS011;6175;50.956;11.064;2022-11-15T14:32:43;2.40;;;1.85;;
12224;SDS011;6175;50.956;11.064;2022-11-15T14:35:12;2.65;;;1.85;;
12224;SDS011;6175;50.956;11.064;2022-11-15T14:37:41;2.20;;;2.00;;
12224;SDS011;6175;50.956;11.064;2022-11-15T14:40:11;2.85;;;1.70;;
12224;SDS011;6175;50.956;11.064;2022-11-15T14:42:42;2.97;;;1.48;;
12224;SDS011;6175;50.956;11.064;2022-11-15T14:45:11;2.00;;;1.80;;
12224;SDS011;6175;50.956;11.064;2022-11-15T14:47:39;2.80;;;1.55;;
12224;SDS011;6175;50.956;11.064;2022-11-15T14:50:10;3.95;;;1.95;;
12224;SDS011;6175;50.956;11.064;2022-11-15T14:52:38;3.67;;;1.80;;
12224;SDS011;6175;50.956;11.064;2022-11-15T14:55:11;2.03;;;1.83;;
12224;SDS011;6175;50.956;11.064;2022-11-15T14:57:44;2.17;;;1.70;;
12224;SDS011;6175;50.956;11.064;2022-11-15T15:00:12;1.63;;;1.52;;
12224;SDS011;6175;50.956;11.064;2022-11-15T15:02:40;2.33;;;1.80;;
12224;SDS011;6175;50.956;11.064;2022-11-15T15:05:15;2.97;;;1.88;;
12224;SDS011;6175;50.956;11.064;2022-11-15T15:07:43;3.15;;;1.90;;
12224;SDS011;6175;50.956;11.064;2022-11-15T15:10:10;2.97;;;1.80;;
12224;SDS011;6175;50.956;11.064;2022-11-15T15:12:38;1.70;;;1.60;;
12224;SDS011;6175;50.956;11.064;2022-11-15T15:15:09;1.80;;;1.70;;
12224;SDS011;6175;50.956;11.064;2022-11-15T15:17:40;1.80;;;1.70;;
12224;SDS011;6175;50.956;11.064;2022-11-15T15:20:07;2.42;;;1.80;;
12224;SDS011;6175;50.956;11.064;2022-11-15T15:22:35;2.60;;;1.90;;
12224;SDS011;6175;50.956;11.064;2022-11-15T15:25:07;3.17;;;1.80;;
12224;SDS011;6175;50.956;11.064;2022-11-15T15:27:45;2.35;;;1.60;;
12224;SDS011;6175;50.956;11.064;2022-11-15T15:30:14;2.55;;;1.52;;
12224;SDS011;6175;50.956;11.064;2022-11-15T15:32:41;2.33;;;1.80;;
12224;SDS011;6175;50.956;11.064;2022-11-15T15:35:11;2.33;;;1.70;;
12224;SDS011;6175;50.956;11.064;2022-11-15T15:37:38;1.60;;;1.50;;
12224;SDS011;6175;50.956;11.064;2022-11-15T15:40:08;1.70;;;1.60;;